• Join FlightAware (Why Join?)
  • Login
  • US Flag 
06:30AM EDT


 

Airport Tracker/Info


-or-


 

Live Flight TrackerFlight Track Log ✈ ASQ4252 ✈ 19-Jul-2013 ✈ KXNA - KORD

Flight Track Log - Related Links

Times and Time Zones

All times are in EDT time to prevent confusion due to time zone crossing. See the ASQ4252 flight status page for this flight to view local times or setup timezone preferences in your user account.

Time Position Orientation Groundspeed Altitude Reporting Facility
EDT Latitude Longitude Course Direction KTS MPH feet Rate Location/Type
11:08AM 36.5291 -94.3525 351° North  Level FlightAware Approximate
11:08AM 36.2328 -94.4294 279° West 206 237 7,300  Level Kansas City Center
11:09AM 36.6165 -94.3721 345° North  Level FlightAware Approximate
11:09AM 36.3011 -94.4583 341° North 251 289 9,000  Level Kansas City Center
11:10AM 36.7034 -94.3940 351° North  Level FlightAware Approximate
11:10AM 36.3797 -94.4578 360° North 274 315 10,800  Level Kansas City Center
11:11AM 36.7883 -94.4110 351° North  Level FlightAware Approximate
11:11AM 36.4689 -94.4544 North 304 350 11,900  Level Kansas City Center
11:12AM 36.8513 -94.3945 60° Northeast  Level FlightAware Approximate
11:12AM 36.5686 -94.4497 North 339 390 13,400  Level Kansas City Center
11:13AM 36.6711 -94.4444 North 360 414 14,900 1,560 Climbing Kansas City Center
11:14AM 36.7939 -94.4392 North 366 421 16,700 1,500 Climbing Kansas City Center
11:15AM 36.8794 -94.3700 33° Northeast 371 427 18,100 1,380 Climbing Kansas City Center
11:16AM 36.9581 -94.2825 42° Northeast 374 430 19,600 1,440 Climbing Kansas City Center
11:17AM 37.0347 -94.1964 42° Northeast 372 428 21,100 1,440 Climbing Kansas City Center
11:18AM 37.1114 -94.1108 42° Northeast 370 426 22,600 1,380 Climbing Kansas City Center
11:19AM 37.1969 -94.0186 41° Northeast 370 426 24,000 1,200 Climbing Kansas City Center
11:20AM 37.2744 -93.9292 43° Northeast 376 433 25,200 1,140 Climbing Kansas City Center
11:21AM 37.3531 -93.8419 41° Northeast 377 434 26,400 1,140 Climbing Kansas City Center
11:22AM 37.4331 -93.7528 41° Northeast 381 438 27,600 1,200 Climbing Kansas City Center
11:23AM 37.5283 -93.6447 42° Northeast 383 441 29,000 1,560 Climbing Kansas City Center
11:24AM 37.6083 -93.5575 41° Northeast 380 437 30,800 1,380 Climbing Kansas City Center
11:25AM 37.6839 -93.4714 42° Northeast 368 423 31,900 1,140 Climbing Kansas City Center
11:26AM 37.7603 -93.3836 42° Northeast 369 425 33,200 1,080 Climbing Kansas City Center
11:27AM 37.8358 -93.2983 42° Northeast 365 420 34,200 840 Climbing Kansas City Center
11:28AM 37.9114 -93.2125 42° Northeast 363 418 35,000 360 Climbing Kansas City Center
11:29AM 37.9886 -93.1231 42° Northeast 368 423 35,000  Level Kansas City Center
11:30AM 38.0947 -93.0017 42° Northeast 415 478 35,000  Level Kansas City Center
11:31AM 38.1856 -92.8964 42° Northeast 431 496 35,000  Level Kansas City Center
11:32AM 38.2803 -92.7889 42° Northeast 444 511 35,000  Level Kansas City Center
11:33AM 38.3717 -92.6808 43° Northeast 444 511 35,000  Level Kansas City Center
11:34AM 38.4633 -92.5756 42° Northeast 442 509 35,000  Level Kansas City Center
11:35AM 38.5547 -92.4697 42° Northeast 439 505 35,000  Level Kansas City Center
11:36AM 38.6450 -92.3617 43° Northeast 440 506 35,000  Level Kansas City Center
11:38AM 38.7358 -92.2550 42° Northeast 441 507 35,000  Level Kansas City Center
11:39AM 38.8447 -92.1258 43° Northeast 442 509 35,000  Level Kansas City Center
11:40AM 38.9358 -92.0178 43° Northeast 442 509 35,000  Level Kansas City Center
11:41AM 39.0264 -91.9103 43° Northeast 443 510 35,000  Level Kansas City Center
11:42AM 39.1167 -91.8022 43° Northeast 443 510 35,000  Level Kansas City Center
11:43AM 39.2083 -91.6931 43° Northeast 444 511 35,000  Level Kansas City Center
11:44AM 39.2972 -91.5831 44° Northeast 449 517 35,000  Level Kansas City Center
11:45AM 39.3869 -91.4739 43° Northeast 447 514 35,000  Level Kansas City Center
11:46AM 39.4953 -91.3433 43° Northeast 444 511 35,000 -540 Level Kansas City Center
11:47AM 39.5872 -91.2311 43° Northeast 447 514 33,900 -960 Descending Kansas City Center
11:48AM 39.6814 -91.1153 43° Northeast 456 525 33,000 -480 Descending Kansas City Center
11:49AM 39.7883 -90.9997 40° Northeast 468 539 33,000  Level Kansas City Center
11:50AM 39.8900 -90.8983 37° Northeast 475 547 33,000  Level Kansas City Center
11:51AM 39.9961 -90.7928 37° Northeast 479 551 33,000  Level Kansas City Center
11:52AM 40.1017 -90.6839 38° Northeast 481 554 33,000  Level Kansas City Center
11:53AM 40.2319 -90.5542 37° Northeast 488 562 33,000  Level Kansas City Center
11:54AM 40.3386 -90.4439 38° Northeast 488 562 33,000 -600 Level Kansas City Center
11:55AM 40.4222 -90.3575 38° Northeast 482 555 31,900 -1,320 Descending Chicago Center
11:56AM 40.5258 -90.2503 38° Northeast 463 533 30,500 -1,500 Descending Chicago Center
11:57AM 40.6436 -90.1275 38° Northeast 454 522 28,800 -1,500 Descending Chicago Center
11:58AM 40.7400 -90.0233 39° Northeast 450 518 27,400 -1,260 Descending Chicago Center
11:59AM 40.8439 -89.9256 35° Northeast 451 519 26,200 -1,080 Descending Chicago Center
12:00PM 40.9344 -89.8269 39° Northeast 426 490 25,200 -1,020 Descending Chicago Center
12:01PM 41.0336 -89.7219 39° Northeast 426 490 24,100 -720 Descending Chicago Center
12:02PM 41.1278 -89.6231 38° Northeast 430 495 23,800 -900 Descending Chicago Center
12:03PM 41.2022 -89.4850 54° Northeast 466 536 22,300 -1,500 Descending Chicago Center
12:04PM 41.2617 -89.3378 62° Northeast 456 525 20,800 -1,620 Descending Chicago Center
12:05PM 41.3267 -89.1822 61° Northeast 442 509 19,000 -2,280 Descending Chicago Center
12:06PM 41.3781 -89.0442 64° Northeast 424 488 16,100 -2,520 Descending Chicago Center
12:07PM 41.4303 -88.9139 62° Northeast 405 466 13,800 -2,340 Descending Chicago Center
12:08PM 41.4908 -88.7597 62° Northeast 394 453 11,300 -1,380 Descending Chicago Center
12:09PM 41.5417 -88.6339 62° Northeast 389 448 11,000 -180 Descending Chicago Center
12:10PM 41.5908 -88.5075 62° Northeast 389 448 11,000 -300 Level Chicago Center
12:12PM 41.6528 -88.3914 54° Northeast 390 449 10,500 -540 Descending Chicago Center
12:13PM 41.7189 -88.2769 52° Northeast 388 447 10,000 -300 Descending Chicago Center
12:14PM 41.7811 -88.1689 52° Northeast 371 427 10,000 -720 Level Chicago Center
12:15PM 41.8336 -88.0503 59° Northeast 315 362 8,600 -1,380 Descending Chicago Center
12:16PM 41.8561 -87.9394 75° East 310 357 7,200 -780 Descending Chicago Center
12:17PM 41.8761 -87.8419 75° East 276 318 7,000 -900 Descending Chicago Center
12:18PM 41.8842 -87.7472 83° East 260 299 5,400 -1,380 Descending Chicago Center
12:19PM 41.9089 -87.6636 68° East 267 307 4,200 -1,200 Descending Chicago Center